Time;durP1;ratioP1;P1;durP2;ratioP2;P2;SDS_P1;SDS_P2;PMS_P1;PMS_P2;Temp;Humidity;BMP_temperature;BMP_pressure;BME280_temperature;BME280_humidity;BME280_pressure;Samples;Min_cycle;Max_cycle;Signal;HPM_P1;HPM_P2
2023/12/23 00:08:26;;;;;;;;;;;;;;;;;;;;;
2023/12/23 00:11:58;;;;;;;;;;;;;;;;;;;;;
2023/12/23 00:15:16;;;;;;;1.20;1.20;;;9.50;99.90;;;;;;5069901;28;20432;-84
2023/12/23 00:18:21;;;;;;;;;;;;;;;;;;;;;
2023/12/23 00:21:24;;;;;;;;;;;;;;;;;;;;;
2023/12/23 00:24:16;;;;;;;3.50;1.10;;;9.50;99.90;;;;;;5071112;28;20485;-85
2023/12/23 00:27:23;;;;;;;4.10;1.57;;;9.50;99.90;;;;;;5078338;28;20475;-84
2023/12/23 00:33:47;;;;;;;;;;;;;;;;;;;;;
2023/12/23 00:36:29;;;;;;;2.60;1.33;;;9.50;99.90;;;;;;5074799;28;20445;-83
2023/12/23 00:39:17;;;;;;;1.93;1.47;;;9.70;99.90;;;;;;5072962;28;20456;-85
2023/12/23 00:42:30;;;;;;;3.80;2.00;;;9.50;99.90;;;;;;5076205;28;20452;-85
2023/12/23 00:45:37;;;;;;;2.57;1.80;;;9.50;99.90;;;;;;5077038;28;20468;-85
2023/12/23 00:48:20;;;;;;;1.40;1.30;;;9.40;99.90;;;;;;5074062;28;20496;-81
2023/12/23 00:51:28;;;;;;;4.30;1.40;;;9.30;99.90;;;;;;5069346;28;20496;-83
2023/12/23 00:54:32;;;;;;;2.00;1.30;;;9.30;99.90;;;;;;5068441;28;20448;-81
2023/12/23 00:57:39;;;;;;;;;;;;;;;;;;;;;
2023/12/23 01:00:37;;;;;;;1.73;1.63;;;9.20;99.90;;;;;;5068208;28;20477;-82
2023/12/23 01:03:53;;;;;;;;;;;;;;;;;;;;;
2023/12/23 01:10:05;;;;;;;1.50;1.30;;;9.20;99.90;;;;;;5012666;28;20452;-82
2023/12/23 01:13:09;;;;;;;2.20;1.33;;;8.90;99.90;;;;;;5024212;28;20459;-82
2023/12/23 01:19:14;;;;;;;2.47;1.27;;;9.40;99.90;;;;;;4958842;28;20429;-82
2023/12/23 01:22:29;;;;;;;;;;;;;;;;;;;;;
2023/12/23 01:36:07;;;;;;;4.70;1.20;;;9.00;99.90;;;;;;4978739;28;20517;-83
2023/12/23 01:39:11;;;;;;;1.77;1.07;;;9.20;99.90;;;;;;5066655;28;20465;-82
2023/12/23 01:45:51;;;;;;;1.70;1.23;;;8.80;99.90;;;;;;4967957;28;21044;-82
2023/12/23 01:52:20;;;;;;;2.70;1.40;;;9.00;99.90;;;;;;4918487;28;20458;-83
2023/12/23 02:29:12;;;;;;;3.10;1.50;;;9.10;99.90;;;;;;4916035;28;20480;-84
2023/12/23 02:32:43;;;;;;;;;;;;;;;;;;;;;
2023/12/23 03:25:30;;;;;;;3.70;1.73;;;9.10;99.90;;;;;;6125566;23;20177;-85
2023/12/23 03:28:13;;;;;;;4.50;2.47;;;9.10;99.90;;;;;;6208407;23;20769;-85
2023/12/23 04:04:53;;;;;;;3.10;1.57;;;9.10;99.90;;;;;;5998224;23;20402;-86
2023/12/23 04:15:15;;;;;;;2.93;1.80;;;9.10;99.90;;;;;;6014492;23;20458;-85
2023/12/23 04:42:13;;;;;;;;;;;;;;;;;;;;;
2023/12/23 04:55:10;;;;;;;;;;;;;;;;;;;;;
2023/12/23 05:11:38;;;;;;;1.10;1.10;;;9.20;99.90;;;;;;6116030;23;20422;-83
2023/12/23 05:18:34;;;;;;;1.20;1.10;;;9.20;99.90;;;;;;5958223;24;20488;-84
2023/12/23 05:24:47;;;;;;;1.10;1.10;;;8.90;99.90;;;;;;5904790;24;20419;-84
2023/12/23 05:27:30;;;;;;;2.63;1.00;;;9.20;99.90;;;;;;6140749;23;20445;-85
2023/12/23 05:53:39;;;;;;;;;;;;;;;;;;;;;
2023/12/23 06:15:43;;;;;;;0.70;0.70;;;8.90;99.90;;;;;;6158878;23;20472;-84
2023/12/23 06:18:43;;;;;;;0.70;0.70;;;8.60;99.90;;;;;;6168300;23;20467;-85
2023/12/23 06:22:12;;;;;;;0.60;0.60;;;8.90;99.90;;;;;;6166391;23;20431;-86
2023/12/23 06:25:02;;;;;;;0.57;0.57;;;8.90;99.90;;;;;;6006386;23;20410;-85
2023/12/23 06:28:33;;;;;;;0.83;0.80;;;8.90;99.90;;;;;;6025492;23;20469;-84
2023/12/23 06:35:07;;;;;;;0.57;0.57;;;9.00;99.90;;;;;;6024781;23;20396;-84
2023/12/23 06:38:16;;;;;;;0.50;0.50;;;8.50;99.90;;;;;;6167825;23;20425;-85
2023/12/23 06:44:53;;;;;;;0.60;0.60;;;8.50;99.90;;;;;;6025579;23;20887;-85
2023/12/23 07:01:35;;;;;;;0.67;0.67;;;8.50;99.90;;;;;;5952991;24;20436;-85
2023/12/23 07:04:40;;;;;;;0.57;0.57;;;8.70;99.90;;;;;;5975524;23;20946;-85
2023/12/23 07:18:09;;;;;;;1.03;0.70;;;8.80;99.90;;;;;;5994383;23;20415;-84
2023/12/23 07:28:24;;;;;;;2.10;0.80;;;8.80;99.90;;;;;;6041621;23;20436;-81
2023/12/23 07:31:47;;;;;;;1.27;0.60;;;8.80;99.90;;;;;;5994183;23;20437;-84
2023/12/23 07:38:10;;;;;;;;;;;;;;;;;;;;;
2023/12/23 08:01:39;;;;;;;0.70;0.70;;;9.10;99.90;;;;;;5964763;23;20436;-84
2023/12/23 08:36:46;;;;;;;0.60;0.60;;;9.30;99.90;;;;;;6011182;23;20441;-82
2023/12/23 08:39:58;;;;;;;0.50;0.50;;;9.30;99.90;;;;;;6074056;23;20450;-83
2023/12/23 08:52:30;;;;;;;1.10;0.60;;;9.10;99.90;;;;;;6131458;23;20423;-85
2023/12/23 08:55:37;;;;;;;0.60;0.60;;;9.40;99.90;;;;;;6133979;23;20947;-83
2023/12/23 08:58:38;;;;;;;0.60;0.50;;;9.40;99.90;;;;;;6168752;23;20434;-81
2023/12/23 09:08:02;;;;;;;0.60;0.60;;;9.50;99.90;;;;;;6158620;23;20415;-83
2023/12/23 09:11:23;;;;;;;0.50;0.50;;;9.50;99.90;;;;;;6045151;23;20431;-82
2023/12/23 09:14:42;;;;;;;0.57;0.57;;;9.50;99.90;;;;;;6140187;23;20415;-81
2023/12/23 09:21:10;;;;;;;0.50;0.50;;;9.50;99.90;;;;;;6159166;23;20423;-85
2023/12/23 09:24:16;;;;;;;0.53;0.53;;;9.50;99.90;;;;;;6171796;23;20411;-82
2023/12/23 09:27:33;;;;;;;0.50;0.50;;;9.80;99.90;;;;;;6170525;23;20721;-82
2023/12/23 09:30:25;;;;;;;0.50;0.50;;;9.50;99.90;;;;;;6165176;23;20443;-86
2023/12/23 09:33:22;;;;;;;0.50;0.50;;;9.50;99.90;;;;;;6170754;23;20425;-86
2023/12/23 09:35:58;;;;;;;0.53;0.53;;;9.60;99.90;;;;;;6177812;23;20411;-83
2023/12/23 09:38:43;;;;;;;0.50;0.50;;;9.60;99.90;;;;;;6179087;23;20423;-85
2023/12/23 09:41:16;;;;;;;0.50;0.50;;;9.60;99.90;;;;;;6174159;23;20439;-82
2023/12/23 09:43:53;;;;;;;0.50;0.50;;;9.60;99.90;;;;;;6174157;23;20403;-84
2023/12/23 09:46:32;;;;;;;0.40;0.40;;;9.60;99.90;;;;;;6172509;23;20910;-85
2023/12/23 09:49:18;;;;;;;0.67;0.67;;;9.60;99.90;;;;;;6171697;23;20467;-84
2023/12/23 09:51:53;;;;;;;0.60;0.60;;;9.60;99.90;;;;;;6174351;23;20437;-82
2023/12/23 09:55:08;;;;;;;0.60;0.60;;;9.90;99.90;;;;;;6175042;23;20430;-84
2023/12/23 09:57:37;;;;;;;0.50;0.50;;;9.70;99.90;;;;;;6069460;23;21093;-81
2023/12/23 10:00:17;;;;;;;0.63;0.63;;;9.70;99.90;;;;;;6173834;23;20416;-83
2023/12/23 10:03:00;;;;;;;0.50;0.50;;;9.70;99.90;;;;;;6168113;23;20493;-82
2023/12/23 10:05:40;;;;;;;0.40;0.40;;;9.70;99.90;;;;;;6174064;23;20391;-81
2023/12/23 10:08:32;;;;;;;0.80;0.80;;;9.70;99.90;;;;;;6171796;23;20422;-83
2023/12/23 10:11:15;;;;;;;0.50;0.50;;;9.70;99.90;;;;;;6169859;23;20452;-83
2023/12/23 10:14:09;;;;;;;0.70;0.70;;;9.70;99.90;;;;;;6172708;23;20479;-85
2023/12/23 10:16:42;;;;;;;0.83;0.80;;;9.70;99.90;;;;;;6174128;23;20408;-82
2023/12/23 10:19:16;;;;;;;0.70;0.70;;;9.70;99.90;;;;;;6174431;23;20392;-82
2023/12/23 10:22:05;;;;;;;0.40;0.40;;;9.70;99.90;;;;;;6174746;23;20492;-85
2023/12/23 10:24:50;;;;;;;0.53;0.53;;;9.70;99.90;;;;;;6170424;23;20410;-83
2023/12/23 10:27:24;;;;;;;0.60;0.60;;;9.70;99.90;;;;;;6168561;23;20470;-81
2023/12/23 10:30:07;;;;;;;0.60;0.60;;;9.40;99.90;;;;;;6172843;23;20422;-81
2023/12/23 10:32:54;;;;;;;;;;;;;;;;;;;;;
2023/12/23 10:35:53;;;;;;;0.60;0.60;;;9.70;99.90;;;;;;6169310;23;20419;-85
2023/12/23 10:38:35;;;;;;;0.50;0.50;;;9.70;99.90;;;;;;6144478;23;20445;-82
2023/12/23 10:42:07;;;;;;;0.43;0.43;;;9.90;99.90;;;;;;6168096;23;20420;-85
2023/12/23 10:44:52;;;;;;;0.50;0.50;;;9.70;99.90;;;;;;6133541;23;20518;-85
2023/12/23 10:47:33;;;;;;;0.40;0.40;;;9.70;99.90;;;;;;6172671;23;20411;-83
2023/12/23 10:50:55;;;;;;;0.50;0.50;;;10.00;99.90;;;;;;6170965;23;20511;-81
2023/12/23 10:53:59;;;;;;;0.50;0.50;;;9.70;99.90;;;;;;6169633;23;20491;-82
2023/12/23 10:57:12;;;;;;;0.60;0.60;;;9.70;99.90;;;;;;6172397;23;20414;-81
2023/12/23 11:00:28;;;;;;;0.50;0.50;;;9.70;99.90;;;;;;6082058;23;20417;-84
2023/12/23 11:03:59;;;;;;;0.50;0.50;;;9.50;99.90;;;;;;6114083;23;20418;-82
2023/12/23 11:06:49;;;;;;;1.13;0.70;;;9.70;99.90;;;;;;6170335;23;20422;-85
2023/12/23 11:09:48;;;;;;;0.70;0.70;;;9.80;99.90;;;;;;6167639;23;20443;-83
2023/12/23 11:25:51;;;;;;;;;;;;;;;;;;;;;
2023/12/23 11:28:50;;;;;;;0.57;0.57;;;9.80;99.90;;;;;;6074261;23;20517;-88
2023/12/23 11:38:22;;;;;;;1.17;0.70;;;9.90;99.90;;;;;;5964433;24;20379;-84
2023/12/23 11:41:16;;;;;;;1.80;0.80;;;9.90;99.90;;;;;;6063541;23;20462;-82
2023/12/23 11:47:52;;;;;;;1.07;0.70;;;9.90;99.90;;;;;;6125631;23;20415;-83
2023/12/23 11:57:36;;;;;;;0.50;0.50;;;9.60;99.90;;;;;;6128558;23;20416;-82
2023/12/23 12:00:40;;;;;;;0.50;0.50;;;9.90;99.90;;;;;;6055086;23;20458;-84
2023/12/23 12:03:39;;;;;;;0.60;0.60;;;9.90;99.90;;;;;;6169600;23;20474;-83
2023/12/23 12:06:18;;;;;;;0.87;0.60;;;9.90;99.90;;;;;;6166025;23;20400;-85
2023/12/23 12:09:08;;;;;;;0.50;0.50;;;9.90;99.90;;;;;;6170857;23;20404;-85
2023/12/23 12:14:44;;;;;;;0.50;0.50;;;10.00;99.90;;;;;;6164086;23;20490;-83
2023/12/23 12:17:24;;;;;;;0.50;0.50;;;10.00;99.90;;;;;;6169753;23;20786;-85
2023/12/23 12:19:59;;;;;;;0.73;0.73;;;10.00;99.90;;;;;;6168260;23;20418;-84
2023/12/23 12:22:30;;;;;;;0.50;0.50;;;10.00;99.90;;;;;;6170585;23;21084;-84
2023/12/23 12:25:00;;;;;;;0.60;0.40;;;10.20;99.90;;;;;;6170232;23;20975;-83
2023/12/23 12:27:44;;;;;;;0.50;0.50;;;10.20;99.90;;;;;;6168976;23;20384;-83
2023/12/23 12:30:18;;;;;;;1.50;0.60;;;10.00;99.90;;;;;;6165749;23;20527;-85
2023/12/23 12:32:52;;;;;;;0.60;0.60;;;9.90;99.90;;;;;;6166431;23;20421;-83
2023/12/23 12:35:23;;;;;;;0.60;0.60;;;9.90;99.90;;;;;;6166926;23;20407;-84
2023/12/23 12:37:55;;;;;;;1.33;0.50;;;9.90;99.90;;;;;;6167699;23;20731;-85
2023/12/23 12:40:26;;;;;;;0.60;0.60;;;9.90;99.90;;;;;;6166687;23;20794;-85
2023/12/23 12:43:01;;;;;;;0.40;0.40;;;9.90;99.90;;;;;;6164336;23;20486;-84
2023/12/23 12:45:42;;;;;;;0.63;0.63;;;9.90;99.90;;;;;;6162677;23;20420;-84
2023/12/23 12:48:13;;;;;;;0.50;0.50;;;10.20;99.90;;;;;;6172133;23;20414;-83
2023/12/23 12:50:51;;;;;;;0.50;0.50;;;10.00;99.90;;;;;;6172454;23;20455;-84
2023/12/23 12:53:40;;;;;;;0.43;0.43;;;10.00;99.90;;;;;;6172858;23;20445;-86
2023/12/23 12:56:20;;;;;;;0.97;0.50;;;10.00;99.90;;;;;;6176036;23;20380;-83
2023/12/23 12:58:54;;;;;;;0.67;0.67;;;10.00;99.90;;;;;;6172772;23;20423;-82
2023/12/23 13:01:25;;;;;;;0.70;0.70;;;10.00;99.90;;;;;;6171248;23;20427;-82
2023/12/23 13:04:09;;;;;;;0.50;0.50;;;10.20;99.90;;;;;;6173014;23;20424;-85
2023/12/23 13:06:40;;;;;;;0.60;0.60;;;10.00;99.90;;;;;;6170676;23;20432;-83
2023/12/23 13:09:32;;;;;;;0.60;0.60;;;10.00;99.90;;;;;;6163772;23;20423;-83
2023/12/23 13:12:02;;;;;;;0.57;0.57;;;9.90;99.90;;;;;;6161553;23;20431;-83
2023/12/23 13:14:35;;;;;;;0.50;0.50;;;9.90;99.90;;;;;;6164061;23;20411;-85
2023/12/23 13:17:05;;;;;;;0.43;0.43;;;9.90;99.90;;;;;;6171238;23;20403;-82
2023/12/23 13:19:37;;;;;;;0.50;0.50;;;9.90;99.90;;;;;;6172561;23;20415;-84
2023/12/23 13:22:11;;;;;;;0.60;0.60;;;10.00;99.90;;;;;;6166872;23;20435;-81
2023/12/23 13:24:41;;;;;;;0.50;0.50;;;10.10;99.90;;;;;;6167119;23;20418;-83
2023/12/23 13:27:12;;;;;;;0.50;0.50;;;10.10;99.90;;;;;;6168581;23;20414;-82
2023/12/23 13:29:42;;;;;;;0.70;0.70;;;10.10;99.90;;;;;;6171601;23;20445;-86
2023/12/23 13:32:11;;;;;;;0.53;0.53;;;10.10;99.90;;;;;;6170206;23;20419;-83
2023/12/23 13:34:39;;;;;;;0.50;0.50;;;10.00;99.90;;;;;;6165488;23;20425;-82
2023/12/23 13:37:13;;;;;;;0.50;0.50;;;10.00;99.90;;;;;;6166996;23;20408;-83
2023/12/23 13:39:45;;;;;;;0.50;0.50;;;10.00;99.90;;;;;;6164955;23;20415;-83
2023/12/23 13:42:18;;;;;;;0.60;0.60;;;10.10;99.90;;;;;;6162459;23;20442;-83
2023/12/23 13:44:56;;;;;;;0.60;0.60;;;10.00;99.90;;;;;;6163133;23;21001;-83
2023/12/23 13:47:26;;;;;;;0.70;0.70;;;10.00;99.90;;;;;;6164880;23;20859;-82
2023/12/23 13:49:54;;;;;;;0.50;0.50;;;10.00;99.90;;;;;;6161424;23;20443;-83
2023/12/23 13:52:30;;;;;;;0.60;0.60;;;10.00;99.90;;;;;;6167337;23;20395;-86
2023/12/23 13:55:10;;;;;;;0.70;0.70;;;10.00;99.90;;;;;;6166198;23;20466;-84
2023/12/23 13:57:47;;;;;;;0.93;0.57;;;9.70;99.90;;;;;;6168176;23;20411;-84
2023/12/23 14:00:18;;;;;;;0.67;0.60;;;9.90;99.90;;;;;;6166046;23;20523;-82
2023/12/23 14:02:46;;;;;;;0.67;0.67;;;9.90;99.90;;;;;;6162936;23;20435;-82
2023/12/23 14:05:15;;;;;;;0.60;0.60;;;10.10;99.90;;;;;;6164183;23;21018;-84
2023/12/23 14:07:45;;;;;;;0.47;0.47;;;9.60;99.90;;;;;;6168817;23;20411;-85
2023/12/23 14:10:15;;;;;;;0.50;0.50;;;9.70;99.90;;;;;;6164921;23;21032;-83
2023/12/23 14:12:44;;;;;;;0.50;0.50;;;9.80;99.90;;;;;;6165072;23;20403;-82
2023/12/23 14:15:16;;;;;;;1.27;0.50;;;9.80;99.90;;;;;;6166498;23;20446;-83
2023/12/23 14:17:47;;;;;;;0.50;0.50;;;9.80;99.90;;;;;;6165303;23;20426;-85
2023/12/23 14:20:17;;;;;;;0.50;0.50;;;9.70;99.90;;;;;;6165916;23;20435;-83
2023/12/23 14:22:47;;;;;;;1.03;0.60;;;10.00;99.90;;;;;;6166093;23;20495;-82
2023/12/23 14:32:02;;;;;;;0.47;0.47;;;9.80;99.90;;;;;;6168446;23;20678;-83
2023/12/23 14:35:10;;;;;;;0.60;0.60;;;10.10;99.90;;;;;;6170283;23;20430;-82
2023/12/23 14:40:48;;;;;;;0.47;0.47;;;9.70;99.90;;;;;;6157231;23;20428;-83
2023/12/23 14:43:21;;;;;;;0.60;0.60;;;9.70;99.90;;;;;;6170785;23;20435;-84
2023/12/23 14:46:18;;;;;;;0.50;0.50;;;9.60;99.90;;;;;;6171162;23;20413;-84
2023/12/23 14:49:01;;;;;;;;;;;;;;;;;;;;;
2023/12/23 14:51:36;;;;;;;1.23;0.60;;;9.60;99.90;;;;;;6179769;23;20441;-84
2023/12/23 14:54:16;;;;;;;0.60;0.60;;;9.30;99.90;;;;;;6181636;23;20609;-85
2023/12/23 14:59:36;;;;;;;0.60;0.60;;;9.60;99.90;;;;;;6182006;23;20410;-86
2023/12/23 15:02:09;;;;;;;3.37;0.93;;;9.60;99.90;;;;;;6180249;23;20418;-83
2023/12/23 15:04:41;;;;;;;1.07;0.97;;;9.60;99.90;;;;;;6170576;23;20416;-84
2023/12/23 15:07:11;;;;;;;0.43;0.43;;;9.50;99.90;;;;;;6166481;23;20441;-81
2023/12/23 15:09:48;;;;;;;0.50;0.50;;;9.50;99.90;;;;;;6166663;23;20444;-80
2023/12/23 15:12:25;;;;;;;0.50;0.50;;;9.50;99.90;;;;;;6168936;23;20454;-84
2023/12/23 15:14:54;;;;;;;0.70;0.70;;;9.50;99.90;;;;;;6168677;23;20438;-81
2023/12/23 15:17:23;;;;;;;0.73;0.60;;;9.20;99.90;;;;;;6170150;23;20414;-84
2023/12/23 15:19:53;;;;;;;0.50;0.50;;;9.70;99.90;;;;;;6170138;23;20439;-82
2023/12/23 15:22:24;;;;;;;0.70;0.70;;;9.70;99.90;;;;;;6170214;23;20439;-86
2023/12/23 15:24:54;;;;;;;0.60;0.60;;;9.50;99.90;;;;;;6168420;23;20415;-82
2023/12/23 15:27:27;;;;;;;0.60;0.60;;;9.50;99.90;;;;;;6170641;23;20412;-82
2023/12/23 15:30:01;;;;;;;0.53;0.53;;;9.50;99.90;;;;;;6169603;23;20419;-85
2023/12/23 15:32:55;;;;;;;0.50;0.50;;;9.50;99.90;;;;;;6173485;23;20408;-83
2023/12/23 15:35:23;;;;;;;0.70;0.70;;;9.20;99.90;;;;;;6169408;23;20432;-82
2023/12/23 15:37:52;;;;;;;0.77;0.77;;;9.50;99.90;;;;;;6170504;23;20415;-86
2023/12/23 15:40:24;;;;;;;1.87;0.70;;;9.70;99.90;;;;;;6167552;23;20486;-83
2023/12/23 15:42:52;;;;;;;0.70;0.70;;;9.40;99.90;;;;;;6166637;23;20416;-84
2023/12/23 15:45:21;;;;;;;0.63;0.63;;;9.40;99.90;;;;;;6167732;23;20479;-82
2023/12/23 15:47:56;;;;;;;0.50;0.50;;;9.40;99.90;;;;;;6167236;23;20420;-83
2023/12/23 15:50:25;;;;;;;1.03;0.80;;;9.40;99.90;;;;;;6167250;23;20443;-84
2023/12/23 15:52:53;;;;;;;0.57;0.57;;;9.40;99.90;;;;;;6167420;23;20412;-81
2023/12/23 15:55:21;;;;;;;0.70;0.70;;;9.40;99.90;;;;;;6169003;23;20428;-83
2023/12/23 15:57:54;;;;;;;0.50;0.50;;;9.30;99.90;;;;;;6172533;23;20414;-82
2023/12/23 16:00:26;;;;;;;0.70;0.70;;;9.30;99.90;;;;;;6178447;23;20438;-81
2023/12/23 16:03:00;;;;;;;0.60;0.60;;;9.30;99.90;;;;;;6177947;23;20430;-86
2023/12/23 16:05:30;;;;;;;0.70;0.70;;;9.40;99.90;;;;;;6174805;23;20423;-82
2023/12/23 16:08:01;;;;;;;0.63;0.63;;;9.40;99.90;;;;;;6172991;23;20414;-84
2023/12/23 16:10:33;;;;;;;0.70;0.70;;;9.40;99.90;;;;;;6172119;23;20442;-84
2023/12/23 16:13:02;;;;;;;0.90;0.83;;;9.40;99.90;;;;;;6172545;23;20426;-83
2023/12/23 16:15:35;;;;;;;0.70;0.70;;;9.70;99.90;;;;;;6172975;23;20422;-83
2023/12/23 16:18:08;;;;;;;0.67;0.67;;;9.50;99.90;;;;;;6171501;23;20467;-84
2023/12/23 16:20:57;;;;;;;0.80;0.80;;;9.50;99.90;;;;;;6170998;23;20432;-84
2023/12/23 16:23:30;;;;;;;1.50;1.40;;;9.50;99.90;;;;;;6167761;23;20469;-85
2023/12/23 16:26:04;;;;;;;0.80;0.73;;;9.50;99.90;;;;;;6170538;23;20422;-88
2023/12/23 16:28:31;;;;;;;3.87;0.73;;;9.50;99.90;;;;;;6171138;23;20418;-83
2023/12/23 16:31:09;;;;;;;2.50;0.80;;;9.80;99.90;;;;;;6168527;23;20446;-83
2023/12/23 16:33:47;;;;;;;0.77;0.77;;;9.80;99.90;;;;;;6167256;23;20416;-83
2023/12/23 16:36:19;;;;;;;1.37;0.80;;;9.60;99.90;;;;;;6167701;23;20494;-82
2023/12/23 16:38:57;;;;;;;0.87;0.87;;;9.60;99.90;;;;;;6167158;23;20415;-82
2023/12/23 16:41:48;;;;;;;0.67;0.67;;;9.70;99.90;;;;;;6166255;23;20427;-84
2023/12/23 16:44:30;;;;;;;1.63;0.80;;;9.40;99.90;;;;;;6165260;23;20419;-83
2023/12/23 16:47:05;;;;;;;0.90;0.90;;;9.70;99.90;;;;;;6167159;23;20416;-84
2023/12/23 16:49:50;;;;;;;0.93;0.77;;;9.70;99.90;;;;;;6166464;23;20414;-84
2023/12/23 16:52:24;;;;;;;1.10;1.00;;;9.70;99.90;;;;;;6166654;23;20438;-83
2023/12/23 16:54:54;;;;;;;0.50;0.50;;;9.70;99.90;;;;;;6167412;23;20469;-83
2023/12/23 16:57:32;;;;;;;0.90;0.70;;;9.70;99.90;;;;;;6164396;23;20455;-83
2023/12/23 17:00:01;;;;;;;0.77;0.77;;;9.70;99.90;;;;;;6162098;23;20445;-81
2023/12/23 17:02:35;;;;;;;1.17;1.07;;;9.70;99.90;;;;;;6162941;23;20479;-86
2023/12/23 17:05:11;;;;;;;1.60;1.10;;;9.80;99.90;;;;;;6162917;23;20422;-83
2023/12/23 17:07:45;;;;;;;1.80;1.00;;;9.70;99.90;;;;;;6163641;23;20415;-82
2023/12/23 17:10:18;;;;;;;0.90;0.90;;;9.70;99.90;;;;;;6164816;23;20445;-85
2023/12/23 17:12:54;;;;;;;0.80;0.80;;;9.80;99.90;;;;;;6165954;23;20414;-84
2023/12/23 17:15:27;;;;;;;1.23;1.23;;;9.80;99.90;;;;;;6164003;23;20752;-86
2023/12/23 17:18:04;;;;;;;0.93;0.93;;;9.80;99.90;;;;;;6163010;23;20411;-84
2023/12/23 17:20:39;;;;;;;0.90;0.90;;;9.80;99.90;;;;;;6163342;23;20819;-85
2023/12/23 17:23:11;;;;;;;4.20;0.87;;;9.80;99.90;;;;;;6162783;23;20418;-84
2023/12/23 17:25:47;;;;;;;0.70;0.70;;;9.80;99.90;;;;;;6162283;23;20435;-83
2023/12/23 17:28:23;;;;;;;0.70;0.70;;;9.80;99.90;;;;;;6165389;23;20413;-84
2023/12/23 17:31:08;;;;;;;1.63;1.53;;;9.90;99.90;;;;;;6165991;23;21005;-83
2023/12/23 17:33:37;;;;;;;0.80;0.70;;;9.60;99.90;;;;;;6168123;23;20895;-83
2023/12/23 17:36:14;;;;;;;0.80;0.80;;;9.90;99.90;;;;;;6164342;23;20458;-85
2023/12/23 17:38:46;;;;;;;1.40;1.30;;;9.90;99.90;;;;;;6164585;23;20415;-82
2023/12/23 17:41:20;;;;;;;0.80;0.80;;;9.90;99.90;;;;;;6166604;23;20935;-83
2023/12/23 17:43:56;;;;;;;1.53;1.10;;;9.80;99.90;;;;;;6163899;23;20951;-84
2023/12/23 17:46:33;;;;;;;1.00;0.93;;;9.80;99.90;;;;;;6164907;23;20466;-82
2023/12/23 17:49:06;;;;;;;1.73;0.90;;;9.80;99.90;;;;;;6165857;23;20404;-82
2023/12/23 17:51:42;;;;;;;3.47;0.97;;;9.80;99.90;;;;;;6164604;23;20440;-85
2023/12/23 17:54:12;;;;;;;1.17;0.90;;;9.80;99.90;;;;;;6166594;23;20411;-82
2023/12/23 17:56:49;;;;;;;1.10;1.10;;;9.80;99.90;;;;;;6168378;23;20420;-81
2023/12/23 17:59:36;;;;;;;1.37;1.30;;;9.80;99.90;;;;;;6168173;23;20808;-81
2023/12/23 18:02:10;;;;;;;1.40;1.27;;;9.80;99.90;;;;;;6163813;23;20455;-83
2023/12/23 18:04:37;;;;;;;0.90;0.90;;;9.80;99.90;;;;;;6168972;23;20372;-82
2023/12/23 18:07:10;;;;;;;1.00;1.00;;;9.70;99.90;;;;;;6168699;23;20400;-84
2023/12/23 18:09:43;;;;;;;0.90;0.90;;;9.70;99.90;;;;;;6165150;23;20414;-82
2023/12/23 18:12:16;;;;;;;0.97;0.97;;;9.70;99.90;;;;;;6166845;23;20428;-82
2023/12/23 18:14:50;;;;;;;2.20;1.20;;;9.70;99.90;;;;;;6168025;23;20415;-81
2023/12/23 18:17:21;;;;;;;2.43;1.10;;;9.60;99.90;;;;;;6165121;23;20406;-82
2023/12/23 18:19:56;;;;;;;1.47;1.00;;;9.70;99.90;;;;;;6165610;23;20423;-84
2023/12/23 18:22:32;;;;;;;1.00;1.00;;;9.60;99.90;;;;;;6165074;23;20464;-84
2023/12/23 18:25:00;;;;;;;1.10;1.10;;;9.30;99.90;;;;;;6165957;23;20426;-85
2023/12/23 18:27:29;;;;;;;2.10;1.43;;;9.50;99.90;;;;;;6164737;23;20948;-85
2023/12/23 18:30:00;;;;;;;1.00;1.00;;;9.60;99.90;;;;;;6163508;23;20416;-83
2023/12/23 18:32:32;;;;;;;3.70;1.27;;;9.60;99.90;;;;;;6163080;23;20440;-82
2023/12/23 18:35:04;;;;;;;1.00;1.00;;;9.50;99.90;;;;;;6164035;23;20412;-83
2023/12/23 18:37:49;;;;;;;1.37;1.30;;;9.50;99.90;;;;;;6163387;23;20412;-82
2023/12/23 18:40:19;;;;;;;1.33;1.10;;;9.60;99.90;;;;;;6164663;23;20576;-83
2023/12/23 18:42:55;;;;;;;1.00;1.00;;;9.50;99.90;;;;;;6168371;23;20400;-83
2023/12/23 18:45:47;;;;;;;0.87;0.83;;;9.50;99.90;;;;;;6169276;23;20486;-82
2023/12/23 18:48:20;;;;;;;1.33;0.90;;;9.50;99.90;;;;;;6170694;23;20695;-81
2023/12/23 18:50:51;;;;;;;1.00;1.00;;;9.70;99.90;;;;;;6168870;23;20435;-82
2023/12/23 18:53:27;;;;;;;0.90;0.90;;;9.50;99.90;;;;;;6170920;23;20405;-82
2023/12/23 18:55:58;;;;;;;2.00;1.03;;;9.50;99.90;;;;;;6170140;23;21287;-82
2023/12/23 18:58:32;;;;;;;0.90;0.90;;;9.30;99.90;;;;;;6169475;23;20409;-82
2023/12/23 19:01:03;;;;;;;1.13;0.90;;;9.60;99.90;;;;;;6170825;23;20452;-84
2023/12/23 19:03:43;;;;;;;2.87;1.17;;;9.50;99.90;;;;;;6170141;23;20414;-84
2023/12/23 19:06:15;;;;;;;0.90;0.90;;;9.50;99.90;;;;;;6168995;23;20447;-81
2023/12/23 19:08:50;;;;;;;1.30;1.10;;;9.20;99.90;;;;;;6168309;23;20751;-82
2023/12/23 19:11:26;;;;;;;2.13;1.27;;;9.50;99.90;;;;;;6167089;23;20447;-82
2023/12/23 19:13:57;;;;;;;1.00;1.00;;;9.50;99.90;;;;;;6168236;23;20372;-81
2023/12/23 19:16:34;;;;;;;1.10;1.10;;;9.50;99.90;;;;;;6168443;23;20756;-84
2023/12/23 19:19:05;;;;;;;0.80;0.80;;;9.30;99.90;;;;;;6169598;23;20411;-83
2023/12/23 19:21:48;;;;;;;0.93;0.93;;;9.50;99.90;;;;;;6169185;23;20428;-84
2023/12/23 19:24:21;;;;;;;1.40;1.10;;;9.40;99.90;;;;;;6171765;23;20419;-84
2023/12/23 19:27:09;;;;;;;0.97;0.90;;;9.50;99.90;;;;;;6169607;23;20415;-82
2023/12/23 19:29:40;;;;;;;1.30;1.20;;;9.50;99.90;;;;;;6169306;23;20424;-81
2023/12/23 19:32:11;;;;;;;1.23;1.23;;;9.40;99.90;;;;;;6166680;23;20443;-81
2023/12/23 19:34:45;;;;;;;1.47;1.17;;;9.40;99.90;;;;;;6168074;23;20494;-81
2023/12/23 19:37:17;;;;;;;0.60;0.60;;;9.40;99.90;;;;;;6171691;23;20419;-82
2023/12/23 19:39:54;;;;;;;1.10;1.10;;;9.70;99.90;;;;;;6170174;23;20414;-82
2023/12/23 19:42:25;;;;;;;0.70;0.70;;;9.40;99.90;;;;;;6169217;23;20410;-82
2023/12/23 19:44:54;;;;;;;1.00;1.00;;;9.40;99.90;;;;;;6171255;23;20798;-83
2023/12/23 19:47:39;;;;;;;0.80;0.80;;;9.60;99.90;;;;;;6170117;23;20422;-82
2023/12/23 19:50:12;;;;;;;0.90;0.90;;;9.40;99.90;;;;;;6173646;23;20426;-83
2023/12/23 19:52:41;;;;;;;0.80;0.80;;;9.40;99.90;;;;;;6172477;23;20487;-83
2023/12/23 19:55:24;;;;;;;1.10;1.10;;;9.40;99.90;;;;;;6173158;23;20442;-83
2023/12/23 19:57:58;;;;;;;1.03;1.03;;;9.40;99.90;;;;;;6172635;23;20412;-83
2023/12/23 20:00:27;;;;;;;1.00;0.90;;;9.60;99.90;;;;;;6171865;23;20435;-80
2023/12/23 20:02:59;;;;;;;0.80;0.80;;;9.40;99.90;;;;;;6170693;23;20446;-83
2023/12/23 20:05:33;;;;;;;0.93;0.80;;;9.40;99.90;;;;;;6167421;23;20504;-82
2023/12/23 20:08:08;;;;;;;1.10;1.10;;;9.30;99.90;;;;;;6166886;23;20404;-82
2023/12/23 20:10:44;;;;;;;1.17;0.80;;;9.30;99.90;;;;;;6163179;23;20466;-83
2023/12/23 20:13:22;;;;;;;0.90;0.90;;;9.30;99.90;;;;;;6163036;23;20531;-84
2023/12/23 20:16:08;;;;;;;1.30;1.20;;;9.30;99.90;;;;;;6163296;23;20412;-84
2023/12/23 20:18:48;;;;;;;0.80;0.80;;;9.30;99.90;;;;;;6164822;23;20454;-83
2023/12/23 20:21:22;;;;;;;0.87;0.87;;;9.30;99.90;;;;;;6162325;23;20438;-83
2023/12/23 20:23:56;;;;;;;0.90;0.70;;;9.30;99.90;;;;;;6162367;23;20725;-82
2023/12/23 20:26:31;;;;;;;1.13;0.90;;;9.40;99.90;;;;;;6161653;23;20412;-83
2023/12/23 20:29:06;;;;;;;0.70;0.70;;;9.40;99.90;;;;;;6161647;23;20423;-81
2023/12/23 20:31:42;;;;;;;0.80;0.80;;;9.40;99.90;;;;;;6161436;23;20494;-84
2023/12/23 20:34:12;;;;;;;0.80;0.80;;;9.30;99.90;;;;;;6161583;23;20416;-83
2023/12/23 20:36:54;;;;;;;0.90;0.90;;;9.40;99.90;;;;;;6161443;23;20471;-82
2023/12/23 20:39:27;;;;;;;0.87;0.87;;;9.30;99.90;;;;;;6161686;23;20455;-82
2023/12/23 20:42:10;;;;;;;0.90;0.90;;;9.00;99.90;;;;;;6161419;23;20428;-83
2023/12/23 20:44:38;;;;;;;1.07;0.97;;;9.30;99.90;;;;;;6161693;23;20414;-83
2023/12/23 20:47:17;;;;;;;0.80;0.80;;;9.30;99.90;;;;;;6162833;23;20408;-82
2023/12/23 20:49:49;;;;;;;2.93;0.93;;;9.30;99.90;;;;;;6162460;23;20419;-82
2023/12/23 20:52:24;;;;;;;0.80;0.80;;;9.20;99.90;;;;;;6160786;23;20832;-83
2023/12/23 20:55:06;;;;;;;0.87;0.87;;;9.30;99.90;;;;;;6163364;23;20396;-82
2023/12/23 20:57:44;;;;;;;0.97;0.73;;;9.30;99.90;;;;;;6164153;23;20418;-82
2023/12/23 21:00:17;;;;;;;1.00;0.90;;;9.30;99.90;;;;;;6166946;23;20439;-81
2023/12/23 21:02:52;;;;;;;0.90;0.90;;;9.30;99.90;;;;;;6170116;23;20434;-85
2023/12/23 21:05:29;;;;;;;1.00;1.00;;;9.50;99.90;;;;;;6169882;23;20430;-83
2023/12/23 21:08:10;;;;;;;0.63;0.63;;;9.30;99.90;;;;;;6172477;23;20415;-82
2023/12/23 21:10:42;;;;;;;0.80;0.80;;;9.00;99.90;;;;;;6169266;23;20428;-83
2023/12/23 21:13:34;;;;;;;0.70;0.70;;;9.30;99.90;;;;;;6167889;23;20563;-81
2023/12/23 21:16:06;;;;;;;0.70;0.70;;;9.30;99.90;;;;;;6168845;23;20416;-82
2023/12/23 21:18:40;;;;;;;0.90;0.80;;;9.30;99.90;;;;;;6167687;23;20396;-80
2023/12/23 21:21:16;;;;;;;0.73;0.73;;;9.30;99.90;;;;;;6168023;23;20447;-82
2023/12/23 21:23:51;;;;;;;0.73;0.73;;;9.30;99.90;;;;;;6170153;23;20438;-82
2023/12/23 21:26:29;;;;;;;1.00;1.00;;;9.30;99.90;;;;;;6171221;23;20421;-82
2023/12/23 21:29:06;;;;;;;1.50;1.40;;;9.30;99.90;;;;;;6170339;23;20444;-83
2023/12/23 21:31:44;;;;;;;1.00;1.00;;;9.30;99.90;;;;;;6140458;23;20488;-82
2023/12/23 21:34:16;;;;;;;1.00;1.00;;;9.30;99.90;;;;;;6139963;23;20423;-80